CheckWX is a tool to help pilots better visualize weather data.  It is not intended as a substitute for an official pre-flight weather briefing.

21:44:02 UTC

LFLX METAR
Châteauroux-Déols "Marcel Dassault" Airport
Châteauroux/Déols, France
Current

44 mins ago

LFLX 292100Z AUTO 16004KT 9999 BKN041 05/04 Q1019 NOSIG
Observed
Jan-29 @ 21:00 UTC
Wind
  • 160° at 4 KTS
Visibility
10,000+ meters
Flight Rules
VFR
Cloud Levels
  • Broken at 4,100' AGL
Temperature
C / 41°F
Dewpoint
C / 39°F
Humidity
93%
Altimeter
30.09" Hg
Pressure
1018.92 hPa
Previous

1 hour ago

LFLX 292030Z AUTO 15002KT 9999 FEW040 05/04 Q1019 NOSIG
Observed
Jan-29 @ 20:30 UTC
Wind
  • 150° at 2 KTS
Visibility
10,000+ meters
Flight Rules
VFR
Cloud Levels
  • Few at 4,000' AGL
Temperature
C / 41°F
Dewpoint
C / 39°F
Humidity
93%
Altimeter
30.09" Hg
Pressure
1018.92 hPa
Previous

2 hours ago

LFLX 292000Z AUTO 18003KT CAVOK 05/05 Q1019 NOSIG
Observed
Jan-29 @ 20:00 UTC
Wind
  • 180° at 3 KTS
Visibility
10,000+ meters
Flight Rules
VFR
Cloud Levels
  • Clear skies
Temperature
C / 41°F
Dewpoint
C / 41°F
Humidity
100%
Altimeter
30.09" Hg
Pressure
1018.92 hPa